createdAt,value
2023-01-02T00:03:17.320Z,98676.97
2023-01-02T00:07:34.848Z,98680.94
2023-01-02T00:11:52.484Z,98668.19
2023-01-02T00:16:10.211Z,98673.91
2023-01-02T00:20:27.564Z,98687.66
2023-01-02T00:24:45.239Z,98686.53
2023-01-02T00:29:03.259Z,98673.38
2023-01-02T00:33:21.154Z,98674.50
2023-01-02T00:37:38.586Z,98679.47
2023-01-02T00:41:56.379Z,98684.03
2023-01-02T00:46:14.111Z,98679.03
2023-01-02T00:50:31.835Z,98667.88
2023-01-02T00:54:49.343Z,98677.22
2023-01-02T00:59:07.059Z,98666.44
2023-01-02T01:03:24.201Z,98667.88
2023-01-02T01:07:41.961Z,98672.63
2023-01-02T01:12:02.291Z,98668.81
2023-01-02T01:16:22.792Z,98669.25
2023-01-02T01:20:40.561Z,98666.84
2023-01-02T01:24:59.495Z,98664.00
2023-01-02T01:29:17.198Z,98658.66
2023-01-02T01:33:35.123Z,98645.06
2023-01-02T01:37:52.826Z,98639.47
2023-01-02T01:42:14.108Z,98638.50
2023-01-02T01:46:42.178Z,98624.72
2023-01-02T01:50:59.349Z,98616.00
2023-01-02T01:55:22.662Z,98612.97
2023-01-02T01:59:40.728Z,98614.75
2023-01-02T02:03:58.468Z,98597.81
2023-01-02T02:08:25.126Z,98600.19
2023-01-02T02:12:43.073Z,98590.25
2023-01-02T02:17:32.962Z,98590.25
2023-01-02T02:22:18.972Z,98583.44
2023-01-02T02:27:03.332Z,98588.63
2023-01-02T02:31:46.079Z,98592.41
2023-01-02T02:36:18.099Z,98576.66
2023-01-02T02:40:55.605Z,98583.22
2023-01-02T02:45:44.931Z,98574.44
2023-01-02T02:50:34.213Z,98583.22
2023-01-02T02:54:54.440Z,98582.78
2023-01-02T02:59:12.550Z,98581.81
2023-01-02T03:03:30.282Z,98577.59
2023-01-02T03:08:21.186Z,98566.81
2023-01-02T03:12:50.982Z,98568.81
2023-01-02T03:17:20.996Z,98563.88
2023-01-02T03:22:05.290Z,98562.47
2023-01-02T03:26:28.899Z,98564.63
2023-01-02T03:30:51.665Z,98561.66
2023-01-02T03:35:15.581Z,98555.69
2023-01-02T03:39:38.998Z,98555.25
2023-01-02T03:43:57.516Z,98551.69
2023-01-02T03:48:38.211Z,98546.69
2023-01-02T03:52:56.204Z,98541.50
2023-01-02T03:57:22.583Z,98545.28
2023-01-02T04:01:49.557Z,98548.31
2023-01-02T04:06:15.867Z,98541.88
2023-01-02T04:10:37.262Z,98541.50
2023-01-02T04:15:08.623Z,98535.91
2023-01-02T04:19:33.785Z,98536.69
2023-01-02T04:24:28.639Z,98533.53
2023-01-02T04:28:46.258Z,98530.31
2023-01-02T04:33:08.362Z,98527.34
2023-01-02T04:37:31.984Z,98536.31
2023-01-02T04:41:49.427Z,98521.75
2023-01-02T04:46:07.004Z,98521.16
2023-01-02T04:50:24.818Z,98522.53
2023-01-02T04:54:42.293Z,98519.56
2023-01-02T04:58:59.654Z,98521.31
2023-01-02T05:03:17.208Z,98523.31
2023-01-02T05:07:36.132Z,98514.75
2023-01-02T05:11:53.618Z,98520.91
2023-01-02T05:16:11.488Z,98518.34
2023-01-02T05:20:29.196Z,98519.28
2023-01-02T05:24:46.863Z,98511.53
2023-01-02T05:29:04.283Z,98514.31
2023-01-02T05:33:21.793Z,98509.88
2023-01-02T05:37:40.925Z,98510.31
2023-01-02T05:41:58.382Z,98515.69
2023-01-02T05:46:20.922Z,98520.66
2023-01-02T05:50:38.760Z,98526.81
2023-01-02T05:54:56.218Z,98526.03
2023-01-02T05:59:15.266Z,98528.63
2023-01-02T06:03:32.885Z,98536.59
2023-01-02T06:07:50.417Z,98532.81
2023-01-02T06:12:07.932Z,98531.56
2023-01-02T06:16:25.706Z,98524.63
2023-01-02T06:20:43.033Z,98531.78
2023-01-02T06:25:00.610Z,98528.19
2023-01-02T06:29:18.265Z,98530.78
2023-01-02T06:33:36.309Z,98533.72
2023-01-02T06:37:53.467Z,98536.53
2023-01-02T06:42:11.225Z,98528.56
2023-01-02T06:46:28.825Z,98530.78
2023-01-02T06:50:46.671Z,98541.13
2023-01-02T06:55:04.615Z,98538.53
2023-01-02T06:59:22.237Z,98529.00
2023-01-02T07:03:39.940Z,98535.16
2023-01-02T07:07:57.641Z,98536.31
2023-01-02T07:12:15.150Z,98544.72
2023-01-02T07:16:32.807Z,98535.75
2023-01-02T07:20:56.336Z,98535.22
2023-01-02T07:25:13.598Z,98532.63
2023-01-02T07:29:31.086Z,98532.44
2023-01-02T07:33:49.425Z,98527.06
2023-01-02T07:38:06.804Z,98525.94
2023-01-02T07:42:25.584Z,98521.16
2023-01-02T07:46:43.143Z,98517.56
2023-01-02T07:51:06.132Z,98526.91
2023-01-02T07:55:23.336Z,98528.94
2023-01-02T07:59:41.321Z,98518.22
2023-01-02T08:03:58.897Z,98520.63
2023-01-02T08:08:17.328Z,98515.44
2023-01-02T08:12:34.564Z,98517.47
2023-01-02T08:16:52.420Z,98524.88
2023-01-02T08:21:11.103Z,98524.88
2023-01-02T08:25:28.265Z,98518.13
2023-01-02T08:29:45.829Z,98525.25
2023-01-02T08:34:03.890Z,98515.09
2023-01-02T08:38:21.520Z,98514.91
2023-01-02T08:42:41.112Z,98509.34
2023-01-02T08:46:58.884Z,98523.34
2023-01-02T08:51:16.594Z,98511.84
2023-01-02T08:55:34.352Z,98505.66
2023-01-02T08:59:52.291Z,98501.09
2023-01-02T09:04:12.790Z,98505.84
2023-01-02T09:08:31.849Z,98502.84
2023-01-02T09:12:49.297Z,98497.84
2023-01-02T09:17:06.978Z,98492.50
2023-01-02T09:21:24.611Z,98487.88
2023-01-02T09:25:41.930Z,98483.72
2023-01-02T09:29:59.439Z,98483.50
2023-01-02T09:34:17.207Z,98484.75
2023-01-02T09:38:35.108Z,98463.84
2023-01-02T09:42:54.232Z,98464.63
2023-01-02T09:47:12.106Z,98460.66
2023-01-02T09:51:29.655Z,98464.84
2023-01-02T09:55:58.513Z,98465.06
2023-01-02T10:00:27.096Z,98465.47
2023-01-02T10:05:12.490Z,98445.19
2023-01-02T10:10:04.345Z,98435.59
2023-01-02T10:14:53.918Z,98441.94
2023-01-02T10:19:44.345Z,98437.34
2023-01-02T10:24:22.244Z,98446.53
2023-01-02T10:29:04.389Z,98449.41
2023-01-02T10:33:52.320Z,98433.88
2023-01-02T10:38:17.184Z,98422.09
2023-01-02T10:42:35.022Z,98423.88
2023-01-02T10:46:53.522Z,98428.69
2023-01-02T10:51:15.324Z,98414.72
2023-01-02T10:55:43.955Z,98409.34
2023-01-02T11:00:02.389Z,98406.56
2023-01-02T11:04:26.021Z,98397.06
2023-01-02T11:08:43.516Z,98394.06
2023-01-02T11:13:09.976Z,98392.50
2023-01-02T11:17:30.199Z,98395.09
2023-01-02T11:21:49.507Z,98383.72
2023-01-02T11:26:20.562Z,98382.50
2023-01-02T11:30:52.143Z,98386.03
2023-01-02T11:35:47.029Z,98370.44
2023-01-02T11:40:25.208Z,98392.63
2023-01-02T11:44:49.912Z,98386.50
2023-01-02T11:49:25.027Z,98392.59
2023-01-02T11:53:48.295Z,98394.94
2023-01-02T11:58:20.066Z,98398.59
2023-01-02T12:02:44.621Z,98396.22
2023-01-02T12:07:40.484Z,98403.16
2023-01-02T12:12:14.506Z,98395.91
2023-01-02T12:17:07.435Z,98394.34
2023-01-02T12:21:32.615Z,98388.56
2023-01-02T12:26:13.710Z,98402.28
2023-01-02T12:30:38.539Z,98386.94
2023-01-02T12:35:18.538Z,98395.03
2023-01-02T12:40:27.750Z,98402.41
2023-01-02T12:44:53.860Z,98409.41
2023-01-02T12:49:32.958Z,98412.66
2023-01-02T12:54:48.380Z,98410.72
2023-01-02T12:59:27.270Z,98403.19
2023-01-02T13:03:48.190Z,98352.94
2023-01-02T13:08:21.380Z,98351.19
2023-01-02T13:12:39.341Z,98346.22
2023-01-02T13:17:50.605Z,98339.84
2023-01-02T13:22:21.035Z,98342.03
2023-01-02T13:26:39.245Z,98345.22
2023-01-02T13:31:44.163Z,98338.03
2023-01-02T13:35:43.262Z,98343.63
2023-01-02T13:40:02.656Z,98353.59
2023-01-02T13:44:33.396Z,98349.00
2023-01-02T13:48:55.066Z,98349.78
2023-01-02T13:53:12.657Z,98345.38
2023-01-02T13:57:29.702Z,98352.97
2023-01-02T14:02:21.328Z,98342.78
2023-01-02T14:06:50.053Z,98326.84
2023-01-02T14:11:19.811Z,98327.03
2023-01-02T14:16:16.657Z,98325.44
2023-01-02T14:20:38.669Z,98325.59
2023-01-02T14:25:04.208Z,98330.16
2023-01-02T14:29:23.944Z,98323.78
2023-01-02T14:33:41.618Z,98324.19
2023-01-02T14:38:18.869Z,98320.78
2023-01-02T14:42:57.172Z,98326.34
2023-01-02T14:47:20.162Z,98329.69
2023-01-02T14:51:43.054Z,98324.72
2023-01-02T14:56:31.759Z,98329.13
2023-01-02T15:00:50.171Z,98325.31
2023-01-02T15:05:14.036Z,98315.97
2023-01-02T15:09:40.438Z,98328.91
2023-01-02T15:14:03.640Z,98328.50
2023-01-02T15:18:23.241Z,98332.66
2023-01-02T15:22:40.705Z,98323.31
2023-01-02T15:27:26.939Z,98340.22
2023-01-02T15:31:53.271Z,98342.44
2023-01-02T15:36:19.707Z,98333.25
2023-01-02T15:40:38.272Z,98327.88
2023-01-02T15:45:11.458Z,98334.25
2023-01-02T15:49:28.998Z,98342.75
2023-01-02T15:53:50.176Z,98346.13
2023-01-02T15:58:16.649Z,98345.13
2023-01-02T16:02:45.003Z,98343.91
2023-01-02T16:07:24.522Z,98352.44
2023-01-02T16:11:49.913Z,98336.34
2023-01-02T16:16:15.494Z,98338.94
2023-01-02T16:20:34.164Z,98352.03
2023-01-02T16:25:06.224Z,98355.00
2023-01-02T16:29:24.528Z,98370.13
2023-01-02T16:33:42.699Z,98359.94
2023-01-02T16:38:19.808Z,98359.41
2023-01-02T16:42:39.159Z,98366.56
2023-01-02T16:46:57.465Z,98378.50
2023-01-02T16:51:15.763Z,98371.50
2023-01-02T16:55:34.447Z,98369.72
2023-01-02T16:59:51.984Z,98382.69
2023-01-02T17:04:17.465Z,98380.88
2023-01-02T17:08:35.011Z,98380.06
2023-01-02T17:12:52.571Z,98373.31
2023-01-02T17:17:13.385Z,98370.09
2023-01-02T17:21:33.062Z,98371.03
2023-01-02T17:25:50.999Z,98370.66
2023-01-02T17:30:13.155Z,98370.28
2023-01-02T17:34:33.762Z,98371.09
2023-01-02T17:38:51.258Z,98379.81
2023-01-02T17:43:08.589Z,98371.03
2023-01-02T17:52:03.965Z,98358.91
2023-01-02T17:56:22.975Z,98360.69
2023-01-02T18:00:44.326Z,98370.25
2023-01-02T18:05:02.518Z,98363.66
2023-01-02T18:09:20.234Z,98377.59
2023-01-02T18:13:59.064Z,98373.63
2023-01-02T18:18:17.313Z,98368.84
2023-01-02T18:22:35.096Z,98388.72
2023-01-02T18:27:30.184Z,98391.31
2023-01-02T18:31:49.075Z,98392.69
2023-01-02T18:36:21.079Z,98373.78
2023-01-02T18:40:40.060Z,98381.31
2023-01-02T18:45:00.280Z,98386.13
2023-01-02T18:49:19.318Z,98398.00
2023-01-02T18:53:44.319Z,98397.81
2023-01-02T18:58:09.616Z,98392.66
2023-01-02T19:02:56.337Z,98393.25
2023-01-02T19:07:28.027Z,98399.63
2023-01-02T19:12:11.622Z,98409.34
2023-01-02T19:16:29.335Z,98406.94
2023-01-02T19:21:20.786Z,98399.34
2023-01-02T19:25:44.894Z,98401.16
2023-01-02T19:30:28.115Z,98403.75
2023-01-02T19:34:59.635Z,98416.88
2023-01-02T19:39:34.384Z,98415.66
2023-01-02T19:43:51.752Z,98413.66
2023-01-02T19:48:16.314Z,98420.63
2023-01-02T19:52:36.116Z,98421.97
2023-01-02T19:56:53.312Z,98421.78
2023-01-02T20:01:11.027Z,98421.97
2023-01-02T20:05:28.899Z,98436.06
2023-01-02T20:09:47.014Z,98438.91
2023-01-02T20:14:04.644Z,98443.09
2023-01-02T20:18:22.185Z,98434.13
2023-01-02T20:22:41.820Z,98440.63
2023-01-02T20:27:01.506Z,98445.00
2023-01-02T20:31:19.508Z,98443.78
2023-01-02T20:35:37.405Z,98443.59
2023-01-02T20:39:54.919Z,98440.22
2023-01-02T20:44:13.882Z,98449.56
2023-01-02T20:48:32.962Z,98444.59
2023-01-02T20:52:56.415Z,98441.38
2023-01-02T20:57:14.800Z,98459.66
2023-01-02T21:01:32.433Z,98456.09
2023-01-02T21:05:50.291Z,98452.69
2023-01-02T21:10:08.247Z,98464.63
2023-01-02T21:14:25.944Z,98465.63
2023-01-02T21:18:43.624Z,98465.63
2023-01-02T21:23:01.975Z,98471.16
2023-01-02T21:27:19.298Z,98480.72
2023-01-02T21:31:37.442Z,98479.44
2023-01-02T21:35:58.836Z,98479.28
2023-01-02T21:40:16.508Z,98487.88
2023-01-02T21:44:34.203Z,98483.81
2023-01-02T21:48:52.902Z,98479.84
2023-01-02T21:53:10.777Z,98483.81
2023-01-02T21:58:02.817Z,98490.19
2023-01-02T22:02:07.053Z,98485.00
2023-01-02T22:06:24.260Z,98499.09
2023-01-02T22:10:42.243Z,98500.25
2023-01-02T22:14:59.744Z,98505.41
2023-01-02T22:19:17.186Z,98499.44
2023-01-02T22:23:34.715Z,98506.03
2023-01-02T22:27:52.399Z,98504.97
2023-01-02T22:32:10.253Z,98495.44
2023-01-02T22:36:31.529Z,98505.41
2023-01-02T22:40:49.656Z,98513.28
2023-01-02T22:45:11.505Z,98513.53
2023-01-02T22:49:31.144Z,98517.47
2023-01-02T22:53:49.025Z,98519.88
2023-01-02T22:58:07.006Z,98518.09
2023-01-02T23:02:24.567Z,98535.56
2023-01-02T23:07:13.729Z,98537.34
2023-01-02T23:11:21.564Z,98537.19
2023-01-02T23:15:59.842Z,98547.22
2023-01-02T23:20:17.601Z,98533.34
2023-01-02T23:24:37.103Z,98545.84
2023-01-02T23:29:06.725Z,98545.47
2023-01-02T23:33:25.111Z,98555.44
2023-01-02T23:37:44.203Z,98550.81
2023-01-02T23:42:01.902Z,98552.84
2023-01-02T23:46:19.433Z,98554.63
2023-01-02T23:50:36.788Z,98559.00
2023-01-02T23:54:54.331Z,98555.19
2023-01-02T23:59:21.729Z,98549.03
